Amistad, New Mexico
Current Conditions -  °F | °C
As of 7:53 PM on Friday 24 Oct 2014 (Local Time) from KDHT Reporting Station
Clear Clear  
Wind Chill: 67°   Ceiling: Unl
Heat Index: 67°   Visibility: 10mi
Dew Point: 36°   Wind: 5mph
Humidity: 32%   Direction: 120°ESE
Pressure: 30.14"   Gusts: NA
Location:  35.92°N, 103.16°W
Report Text: KDHT 250153Z AUTO 12004KT 10SM CLR 19/02 A3014 RMK AO2 SLP173 T01940022
Loading
Personal Weather Stations






























Interactive Weather Map
Tropical Storm Tracking
New forecast layout! Learn more

10-Day Weather Forecast

Advertisements
Track Severe Weather on mobile